TDCF/DCF METAR and TAF weather

Enter ICAO airport designator
Station Type Date Time Source
TDCF METAR 2022/12/09 20:00 UTC NOAA

TDCF 092000Z 19002KT 9999 SCT018 28/20 Q1010


Station Type Date Time Source
TDCF Decoded METAR 2022/12/09 20:00 UTC NOAA

Canefield Airport, Dominica (TDCF) 15-32N 061-24W 5M
Dec 09, 2022 - 03:00 PM EST / 2022.12.09 2000 UTC
Wind: from the S (190 degrees) at 2 MPH (2 KT):0
Visibility: greater than 7 mile(s):0
Sky conditions: partly cloudy
Temperature: 82 F (28 C)
Dew Point: 68 F (20 C)
Relative Humidity: 61%
Pressure (altimeter): 29.83 in. Hg (1010 hPa)
ob: TDCF 092000Z 19002KT 9999 SCT018 28/20 Q1010
cycle: 20

Station Type Date Time Source
TDCF TAF 2012/05/01 18:15 UTC NOAA

TAF TDCF 011600Z 0118/0218 110010KT 9999 SCT018 BKN030
TEMPO 0118/0206 6000 SHRA BKN014 BKN070

Example: see airport list